Reno, NV (89511)

2:55 AM PST on December 05, 2016 (GMT -0800)
APRSWXNET | | Change Station

Elev 4786 ft 39.43 °N, 119.80 °W | Updated 16 minutes ago

Partly Cloudy
Partly Cloudy
34 °F
Feels Like 29 °F
N
5
Wind Variable Wind from SSW
Gusts 7.0 mph

Today
High -- | Low -- °F
--% Chance of Precip.
Yesterday
High -- | Low -- °F
Precip. -- in
Pressure 29.96 in
Visibility 10.0 miles
Clouds Few 15000 ft
Windchill 29 °F
Dew Point 21 °F
Humidity 58%
Rainfall in
Snow Depth Not available.
7:04 AM 4:35 PM
Waxing Crescent, 30% visible
METAR KRNO 050955Z 03007KT 10SM FEW150 04/M04 A3002 RMK AO2 SLP145 T00441044 $
Pressure 29.96 in
Visibility 10.0 miles
Clouds Few 15000 ft
Windchill 29 °F
Dew Point 21 °F
Humidity 58%
Rainfall in
Snow Depth Not available.
7:04 AM 4:35 PM
Waxing Crescent, 30% visible
METAR KRNO 050955Z 03007KT 10SM FEW150 04/M04 A3002 RMK AO2 SLP145 T00441044 $

10-Day Weather Forecast

Almanac

Astronomy

Dec. 05, 2016 Rise Set
Actual Time
Civil Twilight
Nautical Twilight
Astronomical Twilight
Moon
Length of Visible Light
Length of Day
Tomorrow will be .
, % of the Moon is Illuminated

Today's Extremes

State Highs State Lows

Community

WunderPhotos

Upload Photos

1,955,777 photos uploaded!

WunderBlog® & News

Nearby

Air Quality

  Air Quality AQ Index Pollutant
Not available.

Snow Depth

Station Depth Elevation

Earthquake Activity

City Distance Mag. Time & Date
Minimum magnitude displayed is 2.5.

Coastal Water Temperatures

Place Temperature

Stations

Nearby Weather Stations

Station Location Temp. Windchill Dew Point Humidity Wind Precip. Elev Updated Type
                   

Watches & Warnings

There are currently no watches in effect.